Time;durP1;ratioP1;P1;durP2;ratioP2;P2;SDS_P1;SDS_P2;PMS_P1;PMS_P2;Temp;Humidity;BMP_temperature;BMP_pressure;BME280_temperature;BME280_humidity;BME280_pressure;Samples;Min_cycle;Max_cycle;Signal;HPM_P1;HPM_P2
2023/06/29 00:00:58;;;;;;;13.60;5.53;;;23.70;68.60;;;;;;5128932;28;20454;-72
2023/06/29 00:03:25;;;;;;;8.87;5.57;;;23.70;68.60;;;;;;5121133;27;20878;-71
2023/06/29 00:05:55;;;;;;;9.10;5.00;;;23.60;68.90;;;;;;5121358;28;20439;-72
2023/06/29 00:08:22;;;;;;;6.87;4.90;;;23.70;69.10;;;;;;5119494;28;20434;-72
2023/06/29 00:10:49;;;;;;;7.03;5.13;;;23.70;68.60;;;;;;5118061;28;20451;-71
2023/06/29 00:13:16;;;;;;;6.93;5.20;;;23.70;67.90;;;;;;5118511;28;20463;-71
2023/06/29 00:15:43;;;;;;;8.97;4.50;;;23.60;67.80;;;;;;5121281;28;20862;-72
2023/06/29 00:18:09;;;;;;;6.50;5.37;;;23.60;68.10;;;;;;5122882;27;20494;-72
2023/06/29 00:20:36;;;;;;;10.90;5.77;;;23.60;68.10;;;;;;5123762;28;20443;-71
2023/06/29 00:23:04;;;;;;;10.13;5.47;;;23.50;68.40;;;;;;5123681;28;20482;-71
2023/06/29 00:25:32;;;;;;;7.40;5.70;;;23.50;69.30;;;;;;5122909;28;20473;-72
2023/06/29 00:27:58;;;;;;;7.87;5.20;;;23.50;69.40;;;;;;5122791;28;20924;-72
2023/06/29 00:30:25;;;;;;;7.70;5.00;;;23.50;69.60;;;;;;5121953;28;20447;-72
2023/06/29 00:32:53;;;;;;;8.43;4.67;;;23.50;70.60;;;;;;5122071;28;21199;-71
2023/06/29 00:35:20;;;;;;;8.70;5.13;;;23.50;71.40;;;;;;5122626;28;20453;-72
2023/06/29 00:37:47;;;;;;;9.23;4.77;;;23.50;70.60;;;;;;5120798;28;20483;-72
2023/06/29 00:40:15;;;;;;;9.63;5.33;;;23.50;70.50;;;;;;5120786;28;20935;-72
2023/06/29 00:42:42;;;;;;;6.20;5.00;;;23.50;71.20;;;;;;5120426;28;20470;-71
2023/06/29 00:45:10;;;;;;;8.37;5.73;;;23.50;71.50;;;;;;5118879;28;20470;-72
2023/06/29 00:47:37;;;;;;;6.30;4.90;;;23.50;70.30;;;;;;5118074;28;20455;-72
2023/06/29 00:50:05;;;;;;;8.07;5.30;;;23.40;69.60;;;;;;5119191;28;20443;-72
2023/06/29 00:52:32;;;;;;;9.23;5.43;;;23.40;69.90;;;;;;5119477;28;20470;-71
2023/06/29 00:54:59;;;;;;;6.57;5.20;;;23.40;69.80;;;;;;5120329;28;20451;-72
2023/06/29 00:57:29;;;;;;;14.13;5.90;;;23.30;69.60;;;;;;5129786;28;20477;-71
2023/06/29 00:59:59;;;;;;;5.67;4.40;;;23.30;70.00;;;;;;5122011;28;20447;-72
2023/06/29 01:02:29;;;;;;;11.63;5.30;;;23.30;71.20;;;;;;5121666;28;20523;-72
2023/06/29 01:04:56;;;;;;;7.03;5.33;;;23.20;72.30;;;;;;5120604;28;20479;-72
2023/06/29 01:07:27;;;;;;;7.33;4.83;;;23.20;72.80;;;;;;5120767;28;20450;-72
2023/06/29 01:09:55;;;;;;;6.97;5.13;;;23.20;73.00;;;;;;5119981;28;20454;-71
2023/06/29 01:12:23;;;;;;;10.67;4.80;;;23.20;72.90;;;;;;5120406;28;20470;-71
2023/06/29 01:14:52;;;;;;;5.93;4.80;;;23.20;73.20;;;;;;5118315;28;20523;-72
2023/06/29 01:17:23;;;;;;;7.40;4.40;;;23.10;72.80;;;;;;5117892;28;20486;-72
2023/06/29 01:19:53;;;;;;;9.80;5.30;;;23.10;73.60;;;;;;5118728;28;20973;-71
2023/06/29 01:22:25;;;;;;;11.43;5.63;;;23.10;74.20;;;;;;5118780;27;20476;-71
2023/06/29 01:24:54;;;;;;;7.20;5.40;;;23.00;74.30;;;;;;5119285;28;20431;-71
2023/06/29 01:27:21;;;;;;;6.53;4.70;;;23.00;74.50;;;;;;5118949;28;20450;-72
2023/06/29 01:29:55;;;;;;;11.83;5.73;;;22.90;74.40;;;;;;5118751;28;20478;-72
2023/06/29 01:32:33;;;;;;;5.87;5.30;;;22.90;74.60;;;;;;5118675;28;20470;-71
2023/06/29 01:35:01;;;;;;;12.77;5.90;;;22.90;74.60;;;;;;5118565;28;20438;-72
2023/06/29 01:37:34;;;;;;;8.37;5.60;;;22.90;74.90;;;;;;5117184;28;20590;-72
2023/06/29 01:40:06;;;;;;;7.00;5.50;;;22.80;74.90;;;;;;5118451;28;20434;-71
2023/06/29 01:42:33;;;;;;;10.73;6.60;;;22.80;74.30;;;;;;5118765;27;20475;-71
2023/06/29 01:45:01;;;;;;;8.30;5.00;;;22.80;74.20;;;;;;5116703;28;20447;-72
2023/06/29 01:47:28;;;;;;;8.20;5.40;;;22.80;74.10;;;;;;5118209;28;20443;-72
2023/06/29 01:49:56;;;;;;;12.43;5.50;;;22.80;74.30;;;;;;5118174;28;20451;-71
2023/06/29 01:52:23;;;;;;;6.60;5.20;;;22.80;74.60;;;;;;5117193;28;20990;-71
2023/06/29 01:54:50;;;;;;;8.00;4.87;;;22.80;74.70;;;;;;5117785;28;20454;-71
2023/06/29 01:57:18;;;;;;;9.83;5.23;;;22.70;74.80;;;;;;5117429;28;20853;-72
2023/06/29 01:59:46;;;;;;;8.07;5.83;;;22.70;74.90;;;;;;5117468;28;20451;-72
2023/06/29 02:02:13;;;;;;;8.00;5.63;;;22.70;74.80;;;;;;5117227;28;20812;-71
2023/06/29 02:04:40;;;;;;;8.90;5.53;;;22.70;75.00;;;;;;5118065;28;20442;-72
2023/06/29 02:07:07;;;;;;;8.30;5.43;;;22.70;75.50;;;;;;5116194;28;20447;-72
2023/06/29 02:09:34;;;;;;;11.67;5.70;;;22.70;75.60;;;;;;5116670;28;20447;-72
2023/06/29 02:12:02;;;;;;;5.83;5.13;;;22.70;75.70;;;;;;5115657;28;20463;-71
2023/06/29 02:14:30;;;;;;;6.03;5.23;;;22.70;76.00;;;;;;5096794;28;20444;-72
2023/06/29 02:16:56;;;;;;;9.10;5.10;;;22.70;75.80;;;;;;5097149;28;20447;-72
2023/06/29 02:19:23;;;;;;;10.10;5.93;;;22.70;75.40;;;;;;5096950;28;20241;-72
2023/06/29 02:21:50;;;;;;;12.03;6.07;;;22.70;75.50;;;;;;5096891;28;20474;-71
2023/06/29 02:24:17;;;;;;;11.20;6.50;;;22.60;75.40;;;;;;5096274;28;20451;-71
2023/06/29 02:26:43;;;;;;;10.80;6.90;;;22.60;76.00;;;;;;5096438;28;20448;-72
2023/06/29 02:29:10;;;;;;;11.87;6.53;;;22.60;76.80;;;;;;5096713;28;20443;-74
2023/06/29 02:31:38;;;;;;;7.13;5.50;;;22.50;77.30;;;;;;5097040;28;20501;-70
2023/06/29 02:34:05;;;;;;;8.90;5.63;;;22.50;77.40;;;;;;5097436;28;20444;-72
2023/06/29 02:36:32;;;;;;;10.73;5.87;;;22.50;77.20;;;;;;5096037;28;20446;-72
2023/06/29 02:38:58;;;;;;;6.80;5.60;;;22.50;77.20;;;;;;5095274;28;20483;-72
2023/06/29 02:41:25;;;;;;;10.27;6.33;;;22.50;77.10;;;;;;5094722;28;20450;-71
2023/06/29 02:43:53;;;;;;;7.23;5.90;;;22.50;77.30;;;;;;5094023;28;20474;-72
2023/06/29 02:46:20;;;;;;;9.03;6.23;;;22.50;77.30;;;;;;5095713;28;20448;-72
2023/06/29 02:48:48;;;;;;;9.10;5.80;;;22.50;77.30;;;;;;5098004;28;20826;-72
2023/06/29 02:51:16;;;;;;;9.00;6.17;;;22.40;77.60;;;;;;5110347;28;20448;-71
2023/06/29 02:53:43;;;;;;;17.80;5.67;;;22.40;78.20;;;;;;5105104;28;20455;-71
2023/06/29 02:56:09;;;;;;;9.80;6.23;;;22.40;79.10;;;;;;5100472;28;20468;-72
2023/06/29 02:58:36;;;;;;;8.53;5.73;;;22.40;79.40;;;;;;5099531;28;20533;-71
2023/06/29 03:01:03;;;;;;;16.60;6.50;;;22.40;79.10;;;;;;5100604;28;20444;-72
2023/06/29 03:03:29;;;;;;;10.50;5.77;;;22.40;78.70;;;;;;5100053;28;20984;-71
2023/06/29 03:05:58;;;;;;;18.40;6.33;;;22.40;78.90;;;;;;5100847;28;20440;-72
2023/06/29 03:08:24;;;;;;;14.93;6.73;;;22.40;78.60;;;;;;5103803;28;20451;-72
2023/06/29 03:10:51;;;;;;;9.03;6.10;;;22.40;78.50;;;;;;5107929;28;20932;-72
2023/06/29 03:13:18;;;;;;;8.60;6.30;;;22.40;78.70;;;;;;5104237;28;20470;-71
2023/06/29 03:15:45;;;;;;;7.87;6.10;;;22.40;78.90;;;;;;5101226;28;20451;-71
2023/06/29 03:18:12;;;;;;;8.43;6.47;;;22.30;78.90;;;;;;5100101;28;20487;-72
2023/06/29 03:20:38;;;;;;;7.70;6.30;;;22.30;79.10;;;;;;5100024;28;20448;-71
2023/06/29 03:23:06;;;;;;;10.20;5.60;;;22.20;79.20;;;;;;5100112;28;20467;-71
2023/06/29 03:25:33;;;;;;;10.00;6.90;;;22.30;79.60;;;;;;5100005;28;20455;-72
2023/06/29 03:28:00;;;;;;;11.93;6.57;;;22.30;79.80;;;;;;5099568;28;20440;-72
2023/06/29 03:30:26;;;;;;;8.70;6.67;;;22.30;79.40;;;;;;5098849;28;20514;-71
2023/06/29 03:32:54;;;;;;;14.00;6.80;;;22.30;80.00;;;;;;5098752;28;20471;-71
2023/06/29 03:35:20;;;;;;;7.83;6.20;;;22.30;80.20;;;;;;5099666;28;20448;-72
2023/06/29 03:37:47;;;;;;;10.70;7.40;;;22.30;80.80;;;;;;5098782;28;20471;-72
2023/06/29 03:40:16;;;;;;;10.27;6.20;;;22.30;80.60;;;;;;5100048;28;20457;-71
2023/06/29 03:42:43;;;;;;;14.10;6.63;;;22.30;80.20;;;;;;5099601;28;20549;-71
2023/06/29 03:45:10;;;;;;;8.77;6.73;;;22.30;81.20;;;;;;5098374;28;20454;-72
2023/06/29 03:47:37;;;;;;;11.00;7.17;;;22.30;80.80;;;;;;5099420;28;20451;-72
2023/06/29 03:50:04;;;;;;;11.17;7.70;;;22.30;80.60;;;;;;5098605;28;20819;-71
2023/06/29 03:52:31;;;;;;;9.10;6.83;;;22.40;80.90;;;;;;5098905;28;20502;-73
2023/06/29 03:54:58;;;;;;;10.77;6.90;;;22.40;80.80;;;;;;5098121;28;20448;-72
2023/06/29 03:57:26;;;;;;;8.30;6.80;;;22.40;80.80;;;;;;5101005;28;20455;-72
2023/06/29 03:59:52;;;;;;;8.70;6.83;;;22.40;80.90;;;;;;5100168;28;20490;-72
2023/06/29 04:02:19;;;;;;;10.80;6.70;;;22.40;81.00;;;;;;5100078;28;20464;-71
2023/06/29 04:04:47;;;;;;;9.30;7.33;;;22.40;81.20;;;;;;5099980;28;20448;-72
2023/06/29 04:07:14;;;;;;;9.00;6.13;;;22.50;81.70;;;;;;5100227;28;20976;-72
2023/06/29 04:09:41;;;;;;;10.27;7.40;;;22.50;82.00;;;;;;5098748;28;20517;-71
2023/06/29 04:12:08;;;;;;;9.87;6.30;;;22.50;82.00;;;;;;5100012;28;20463;-71
2023/06/29 04:14:37;;;;;;;6.93;6.00;;;22.50;82.00;;;;;;5100167;28;20635;-72
2023/06/29 04:17:04;;;;;;;13.90;8.30;;;22.50;82.10;;;;;;5100536;28;20447;-72
2023/06/29 04:19:31;;;;;;;10.77;7.53;;;22.60;82.20;;;;;;5100071;28;20474;-71
2023/06/29 04:21:58;;;;;;;10.40;7.03;;;22.60;81.50;;;;;;5099894;28;21041;-71
2023/06/29 04:24:24;;;;;;;13.63;8.00;;;22.60;81.00;;;;;;5100305;28;20460;-71
2023/06/29 04:26:52;;;;;;;11.10;7.30;;;22.50;81.00;;;;;;5100083;28;20459;-71
2023/06/29 04:29:19;;;;;;;9.13;7.90;;;22.50;81.00;;;;;;5097813;28;20496;-71
2023/06/29 04:31:47;;;;;;;11.57;7.90;;;22.40;81.10;;;;;;5095947;28;20455;-71
2023/06/29 04:34:17;;;;;;;13.33;8.07;;;22.40;81.60;;;;;;5099077;28;20450;-71
2023/06/29 04:36:45;;;;;;;9.63;7.97;;;22.30;81.90;;;;;;5097674;28;20887;-72
2023/06/29 04:39:12;;;;;;;11.07;7.67;;;22.30;82.30;;;;;;5097448;28;20484;-72
2023/06/29 04:41:40;;;;;;;14.50;9.10;;;22.30;82.30;;;;;;5096892;28;20448;-71
2023/06/29 04:44:09;;;;;;;10.23;8.00;;;22.30;82.70;;;;;;5097545;28;20477;-72
2023/06/29 04:46:38;;;;;;;11.50;7.50;;;22.30;82.40;;;;;;5097268;28;20448;-72
2023/06/29 04:49:09;;;;;;;12.13;7.90;;;22.30;82.60;;;;;;5097618;28;20493;-71
2023/06/29 04:51:37;;;;;;;12.00;8.20;;;22.30;82.60;;;;;;5098258;28;20444;-71
2023/06/29 04:54:05;;;;;;;11.60;8.23;;;22.30;82.90;;;;;;5096883;28;20475;-71
2023/06/29 04:56:32;;;;;;;12.13;8.23;;;22.30;83.80;;;;;;5097685;28;20444;-72
2023/06/29 04:58:59;;;;;;;11.23;7.47;;;22.40;84.80;;;;;;5098088;28;20529;-72
2023/06/29 05:01:27;;;;;;;9.60;8.13;;;22.40;85.10;;;;;;5097827;28;20454;-72
2023/06/29 05:03:55;;;;;;;16.60;7.97;;;22.40;84.70;;;;;;5097363;28;20546;-71
2023/06/29 05:06:23;;;;;;;14.80;8.47;;;22.40;85.30;;;;;;5097779;28;20443;-72
2023/06/29 05:08:49;;;;;;;13.90;7.80;;;22.40;86.00;;;;;;5097929;28;20440;-71
2023/06/29 05:11:16;;;;;;;9.10;6.93;;;22.50;85.70;;;;;;5097533;28;20454;-70
2023/06/29 05:13:43;;;;;;;22.97;8.40;;;22.50;85.30;;;;;;5095807;28;20476;-71
2023/06/29 05:16:10;;;;;;;17.63;7.80;;;22.60;85.00;;;;;;5097753;28;20477;-72
2023/06/29 05:18:37;;;;;;;12.30;7.70;;;22.60;84.60;;;;;;5097191;28;20562;-72
2023/06/29 05:21:07;;;;;;;11.10;6.70;;;22.60;84.50;;;;;;5098425;28;20455;-72
2023/06/29 05:23:36;;;;;;;11.77;7.17;;;22.70;84.90;;;;;;5108695;28;20452;-71
2023/06/29 05:26:05;;;;;;;16.27;8.17;;;22.70;84.70;;;;;;5102098;28;20451;-71
2023/06/29 05:28:32;;;;;;;18.67;8.63;;;22.80;84.10;;;;;;5100846;28;20504;-72
2023/06/29 05:30:59;;;;;;;20.60;8.40;;;22.80;83.90;;;;;;5098686;28;20767;-71
2023/06/29 05:33:26;;;;;;;18.37;8.20;;;22.80;83.70;;;;;;5098223;28;20464;-71
2023/06/29 05:35:53;;;;;;;19.17;8.30;;;22.90;83.60;;;;;;5096927;28;20451;-72
2023/06/29 05:38:20;;;;;;;14.27;8.87;;;22.90;83.30;;;;;;5097481;28;20494;-72
2023/06/29 05:40:48;;;;;;;16.40;7.67;;;22.90;82.90;;;;;;5097975;28;20470;-71
2023/06/29 05:43:15;;;;;;;20.40;8.20;;;22.90;82.90;;;;;;5108062;28;20836;-71
2023/06/29 05:45:41;;;;;;;26.00;9.17;;;22.90;83.00;;;;;;5101071;28;20450;-72
2023/06/29 05:48:08;;;;;;;18.43;9.87;;;22.90;83.30;;;;;;5097095;28;20443;-71
2023/06/29 05:50:35;;;;;;;11.00;8.10;;;22.90;83.50;;;;;;5097615;28;20474;-72
2023/06/29 05:53:03;;;;;;;20.23;8.73;;;22.90;83.20;;;;;;5096690;28;20976;-71
2023/06/29 05:55:30;;;;;;;12.97;8.57;;;22.90;83.20;;;;;;5097148;28;20444;-72
2023/06/29 05:57:58;;;;;;;20.93;8.33;;;23.00;83.00;;;;;;5096977;28;20444;-72
2023/06/29 06:00:25;;;;;;;14.93;7.97;;;23.10;83.00;;;;;;5097142;28;20486;-72
2023/06/29 06:02:53;;;;;;;16.70;8.00;;;23.10;82.80;;;;;;5096949;28;20474;-71
2023/06/29 06:05:20;;;;;;;17.33;8.33;;;23.20;82.50;;;;;;5095555;28;20452;-72
2023/06/29 06:07:46;;;;;;;18.33;8.87;;;23.20;82.10;;;;;;5096676;28;20470;-72
2023/06/29 06:10:13;;;;;;;14.17;8.50;;;23.30;82.10;;;;;;5097305;28;20444;-72
2023/06/29 06:12:40;;;;;;;20.00;8.57;;;23.30;81.70;;;;;;5096402;28;20475;-71
2023/06/29 06:15:13;;;;;;;28.60;9.47;;;23.40;81.50;;;;;;5096444;28;20448;-72
2023/06/29 06:17:40;;;;;;;16.43;8.50;;;23.50;81.20;;;;;;5096501;28;20436;-72
2023/06/29 06:20:09;;;;;;;16.40;8.20;;;23.60;81.10;;;;;;5096812;28;20467;-71
2023/06/29 06:22:35;;;;;;;12.80;7.83;;;23.70;80.60;;;;;;5096795;28;20521;-71
2023/06/29 06:25:02;;;;;;;14.37;8.77;;;23.90;80.10;;;;;;5095985;28;20452;-72
2023/06/29 06:27:31;;;;;;;18.87;8.63;;;24.10;80.10;;;;;;5096133;28;20812;-72
2023/06/29 06:29:58;;;;;;;14.83;8.90;;;24.20;80.00;;;;;;5096597;28;20933;-72
2023/06/29 06:32:26;;;;;;;17.97;8.70;;;24.40;79.30;;;;;;5095199;28;20495;-71
2023/06/29 06:34:53;;;;;;;12.03;7.13;;;24.50;77.90;;;;;;5096895;28;20478;-71
2023/06/29 06:37:21;;;;;;;12.60;6.70;;;24.60;76.40;;;;;;5096697;28;20521;-72
2023/06/29 06:39:49;;;;;;;15.03;8.67;;;24.80;75.50;;;;;;5095861;28;20999;-71
2023/06/29 06:42:15;;;;;;;12.60;7.93;;;24.90;74.20;;;;;;5096600;28;20471;-71
2023/06/29 06:44:51;;;;;;;20.37;7.83;;;25.10;75.40;;;;;;5095491;28;20439;-72
2023/06/29 06:47:18;;;;;;;15.83;8.90;;;25.20;73.80;;;;;;5096899;28;20443;-71
2023/06/29 06:49:47;;;;;;;22.07;9.63;;;25.30;73.40;;;;;;5096557;28;20448;-71
2023/06/29 06:52:14;;;;;;;12.30;7.30;;;25.40;72.80;;;;;;5096610;28;20478;-71
2023/06/29 06:54:41;;;;;;;14.77;8.73;;;25.50;72.70;;;;;;5096221;28;20940;-72
2023/06/29 06:57:08;;;;;;;15.20;7.80;;;25.50;73.40;;;;;;5097010;28;20982;-72
2023/06/29 06:59:35;;;;;;;11.07;7.80;;;25.60;73.40;;;;;;5096814;28;20487;-72
2023/06/29 07:02:01;;;;;;;18.60;7.97;;;25.70;73.10;;;;;;5096288;28;20848;-71
2023/06/29 07:04:28;;;;;;;20.80;9.43;;;25.70;73.10;;;;;;5096330;28;20460;-72
2023/06/29 07:06:56;;;;;;;14.33;8.23;;;25.80;72.80;;;;;;5096858;28;20444;-72
2023/06/29 07:09:23;;;;;;;16.63;7.60;;;25.70;71.80;;;;;;5095897;28;20923;-71
2023/06/29 07:11:50;;;;;;;15.93;9.87;;;25.70;71.10;;;;;;5095865;28;21035;-71
2023/06/29 07:14:16;;;;;;;20.83;9.27;;;25.80;70.80;;;;;;5095742;28;20443;-71
2023/06/29 07:16:43;;;;;;;18.30;9.40;;;25.70;71.00;;;;;;5096194;28;20451;-72
2023/06/29 07:19:13;;;;;;;17.43;9.47;;;25.80;71.40;;;;;;5095403;28;20496;-71
2023/06/29 07:21:41;;;;;;;13.53;8.70;;;25.80;72.40;;;;;;5095607;28;20421;-71
2023/06/29 07:24:10;;;;;;;18.63;9.73;;;25.90;72.20;;;;;;5095026;28;20451;-72
2023/06/29 07:26:37;;;;;;;22.40;12.10;;;26.00;72.50;;;;;;5094562;28;20459;-72
2023/06/29 07:29:05;;;;;;;21.10;10.30;;;26.00;72.30;;;;;;5094987;28;20443;-72
2023/06/29 07:31:32;;;;;;;17.50;11.47;;;26.00;71.20;;;;;;5077076;28;20493;-72
2023/06/29 07:33:59;;;;;;;19.03;12.40;;;26.10;70.60;;;;;;5094646;28;20463;-72
2023/06/29 07:36:29;;;;;;;19.20;13.23;;;26.00;71.50;;;;;;5111626;28;20423;-71
2023/06/29 07:38:56;;;;;;;22.20;15.47;;;25.90;71.40;;;;;;5104257;28;20447;-72
2023/06/29 07:41:24;;;;;;;18.37;14.40;;;25.90;72.40;;;;;;5098886;28;20452;-71
2023/06/29 07:43:53;;;;;;;26.90;13.90;;;25.80;72.10;;;;;;5099456;28;20554;-72
2023/06/29 07:46:19;;;;;;;20.93;13.90;;;25.70;72.60;;;;;;5098887;28;20443;-72
2023/06/29 07:48:47;;;;;;;20.90;14.50;;;25.70;73.20;;;;;;5099749;28;20480;-71
2023/06/29 07:51:14;;;;;;;22.20;14.87;;;25.60;73.70;;;;;;5100007;28;20448;-72
2023/06/29 07:53:42;;;;;;;24.70;14.50;;;25.50;73.50;;;;;;5100017;28;20825;-71
2023/06/29 07:56:09;;;;;;;24.40;15.10;;;25.50;73.20;;;;;;5099593;28;20941;-72
2023/06/29 07:58:37;;;;;;;18.10;14.77;;;25.50;74.10;;;;;;5098010;28;20480;-72
2023/06/29 08:01:04;;;;;;;19.50;14.83;;;25.50;74.50;;;;;;5098962;28;20475;-72
2023/06/29 08:03:32;;;;;;;21.20;13.50;;;25.50;74.80;;;;;;5098813;28;21030;-72
2023/06/29 08:05:59;;;;;;;19.00;13.77;;;25.50;75.20;;;;;;5098605;28;20517;-72
2023/06/29 08:08:29;;;;;;;15.30;13.57;;;25.50;75.70;;;;;;5098516;28;20530;-72
2023/06/29 08:10:56;;;;;;;18.47;13.70;;;25.60;75.20;;;;;;5098381;28;20961;-71
2023/06/29 08:13:23;;;;;;;19.87;15.20;;;25.60;75.50;;;;;;5098402;28;20511;-72
2023/06/29 08:15:51;;;;;;;16.90;13.87;;;25.70;74.40;;;;;;5098258;28;20521;-72
2023/06/29 08:18:18;;;;;;;19.10;14.80;;;25.90;74.30;;;;;;5098090;28;20481;-72
2023/06/29 08:20:46;;;;;;;20.13;15.50;;;26.00;74.50;;;;;;5098612;28;20483;-71
2023/06/29 08:23:13;;;;;;;20.37;13.97;;;26.20;74.00;;;;;;5098221;28;20467;-71
2023/06/29 08:25:39;;;;;;;18.57;14.50;;;26.40;73.20;;;;;;5098310;28;20452;-71
2023/06/29 08:28:06;;;;;;;20.80;14.90;;;26.60;72.50;;;;;;5097936;28;20443;-72
2023/06/29 08:30:34;;;;;;;17.73;12.73;;;26.80;71.60;;;;;;5096462;28;20444;-71
2023/06/29 08:33:03;;;;;;;21.70;13.63;;;27.10;70.30;;;;;;5101687;28;20886;-71
2023/06/29 08:35:29;;;;;;;20.27;14.50;;;27.40;68.90;;;;;;5105543;28;20440;-72
2023/06/29 08:37:56;;;;;;;20.47;14.80;;;27.70;67.30;;;;;;5098107;28;20947;-72
2023/06/29 08:40:23;;;;;;;20.50;12.60;;;28.00;65.70;;;;;;5096009;28;21053;-72
2023/06/29 08:42:51;;;;;;;23.17;16.27;;;28.10;63.90;;;;;;5097896;28;20847;-72
2023/06/29 08:45:18;;;;;;;22.70;14.90;;;28.30;61.30;;;;;;5096308;28;20530;-72
2023/06/29 08:47:51;;;;;;;18.07;14.23;;;28.40;60.40;;;;;;5095652;28;20452;-72
2023/06/29 08:50:24;;;;;;;20.93;14.80;;;28.40;60.90;;;;;;5096458;28;20475;-72
2023/06/29 08:52:51;;;;;;;18.80;15.03;;;28.60;60.70;;;;;;5098127;28;20464;-72
2023/06/29 08:55:18;;;;;;;25.97;16.20;;;28.70;60.80;;;;;;5097112;28;20444;-73
2023/06/29 08:57:45;;;;;;;17.73;13.90;;;28.80;60.00;;;;;;5096097;28;20451;-73
2023/06/29 09:00:14;;;;;;;15.07;13.47;;;28.90;60.30;;;;;;5096904;28;20479;-73
2023/06/29 09:02:41;;;;;;;16.03;12.47;;;29.20;59.90;;;;;;5098669;28;20471;-72
2023/06/29 09:05:08;;;;;;;15.90;12.53;;;29.50;58.50;;;;;;5096987;28;20447;-73
2023/06/29 09:07:40;;;;;;;16.93;15.13;;;29.90;57.50;;;;;;5097145;28;20451;-73
2023/06/29 09:10:09;;;;;;;17.63;14.73;;;30.10;55.80;;;;;;5098536;28;20854;-73
2023/06/29 09:12:37;;;;;;;20.67;15.73;;;30.40;54.70;;;;;;5097377;28;20474;-73
2023/06/29 09:15:09;;;;;;;14.53;13.03;;;30.60;53.60;;;;;;5098973;28;20455;-73
2023/06/29 09:17:36;;;;;;;19.03;15.30;;;30.60;52.30;;;;;;5101574;28;20447;-73
2023/06/29 09:20:15;;;;;;;17.60;13.70;;;30.70;51.40;;;;;;5100915;28;20459;-73
2023/06/29 09:22:43;;;;;;;19.90;14.93;;;30.70;50.80;;;;;;5100599;28;20474;-72
2023/06/29 09:25:11;;;;;;;16.63;14.40;;;30.70;50.00;;;;;;5099429;28;20826;-73
2023/06/29 09:27:38;;;;;;;17.13;15.20;;;30.70;50.40;;;;;;5098137;28;20448;-73
2023/06/29 09:30:06;;;;;;;18.03;14.97;;;30.70;51.80;;;;;;5098859;28;20937;-73
2023/06/29 09:32:38;;;;;;;15.83;13.73;;;30.60;52.00;;;;;;5099707;28;20475;-72
2023/06/29 09:35:07;;;;;;;16.27;14.67;;;30.60;52.40;;;;;;5098722;28;20435;-73
2023/06/29 09:37:35;;;;;;;15.67;12.47;;;30.70;51.20;;;;;;5097636;28;20447;-74
2023/06/29 09:40:09;;;;;;;19.00;14.20;;;30.70;51.80;;;;;;5097123;28;20478;-72
2023/06/29 09:42:37;;;;;;;15.67;14.00;;;30.90;51.60;;;;;;5097517;28;20508;-72
2023/06/29 09:45:07;;;;;;;14.87;12.63;;;31.10;50.90;;;;;;5097289;28;20874;-73
2023/06/29 09:47:34;;;;;;;18.13;12.67;;;31.30;49.70;;;;;;5097203;28;20455;-71
2023/06/29 09:50:01;;;;;;;17.67;12.30;;;31.40;48.20;;;;;;5097050;28;20447;-73
2023/06/29 09:52:28;;;;;;;17.83;15.33;;;31.50;48.50;;;;;;5095309;28;20463;-71
2023/06/29 09:54:58;;;;;;;20.07;12.37;;;31.50;49.10;;;;;;5100803;28;20443;-73
2023/06/29 09:57:28;;;;;;;13.40;12.00;;;31.40;48.90;;;;;;5106766;28;20424;-72
2023/06/29 09:59:55;;;;;;;13.57;11.50;;;31.20;47.70;;;;;;5098952;28;20478;-73
2023/06/29 10:02:22;;;;;;;14.90;11.87;;;31.00;48.00;;;;;;5097635;28;20494;-72
2023/06/29 10:04:48;;;;;;;13.33;12.00;;;30.70;48.30;;;;;;5097695;28;20455;-73
2023/06/29 10:07:18;;;;;;;14.90;12.87;;;30.50;49.20;;;;;;5097908;28;20447;-73
2023/06/29 10:09:47;;;;;;;15.83;12.63;;;30.30;50.20;;;;;;5097396;28;20452;-72
2023/06/29 10:12:15;;;;;;;17.33;13.07;;;30.10;50.20;;;;;;5096203;28;20536;-72
2023/06/29 10:14:45;;;;;;;13.87;12.47;;;30.00;50.50;;;;;;5096172;28;20509;-73
2023/06/29 10:17:17;;;;;;;13.80;11.40;;;29.90;50.90;;;;;;5096567;28;20432;-73
2023/06/29 10:19:45;;;;;;;12.23;10.90;;;29.70;50.40;;;;;;5096059;28;20502;-72
2023/06/29 10:22:16;;;;;;;14.30;11.63;;;29.50;50.50;;;;;;5096126;28;20464;-72
2023/06/29 10:24:48;;;;;;;13.10;11.70;;;29.40;51.10;;;;;;5095711;28;20874;-72
2023/06/29 10:27:16;;;;;;;14.53;11.27;;;29.20;53.10;;;;;;5095318;28;20844;-73
2023/06/29 10:29:45;;;;;;;12.90;9.77;;;29.00;50.50;;;;;;5095389;28;20452;-73
2023/06/29 10:32:30;;;;;;;11.90;10.70;;;28.80;51.50;;;;;;5096570;28;20472;-72
2023/06/29 10:35:09;;;;;;;12.40;10.87;;;28.70;53.50;;;;;;5095275;28;20432;-73
2023/06/29 10:37:37;;;;;;;15.80;11.53;;;28.60;54.60;;;;;;5097050;28;20443;-73
2023/06/29 10:40:14;;;;;;;17.33;12.10;;;28.40;54.00;;;;;;5095634;28;20498;-72
2023/06/29 10:42:52;;;;;;;24.60;14.40;;;28.30;54.50;;;;;;5095949;28;20470;-72
2023/06/29 10:45:38;;;;;;;17.60;12.53;;;28.10;55.60;;;;;;5095256;28;20948;-73
2023/06/29 10:48:10;;;;;;;15.60;12.83;;;27.90;56.30;;;;;;5094588;28;20448;-73
2023/06/29 10:50:40;;;;;;;17.23;13.97;;;27.70;56.90;;;;;;5095313;28;20427;-72
2023/06/29 10:53:10;;;;;;;18.13;14.10;;;27.60;58.10;;;;;;5095871;28;20471;-72
2023/06/29 10:55:42;;;;;;;16.00;14.30;;;27.50;59.20;;;;;;5095398;28;20428;-72
2023/06/29 10:58:30;;;;;;;16.17;13.23;;;27.40;60.60;;;;;;5094639;28;20944;-73
2023/06/29 11:00:58;;;;;;;19.30;15.30;;;27.30;61.30;;;;;;5096039;28;20508;-73
2023/06/29 11:03:25;;;;;;;16.73;15.00;;;27.20;62.50;;;;;;5095142;28;20506;-72
2023/06/29 11:05:54;;;;;;;19.93;16.40;;;27.00;62.80;;;;;;5094530;28;20474;-73
2023/06/29 11:08:23;;;;;;;16.90;15.07;;;27.10;64.30;;;;;;5095022;28;20444;-73
2023/06/29 11:10:50;;;;;;;17.40;15.63;;;27.20;64.10;;;;;;5096714;28;20450;-72
2023/06/29 11:13:20;;;;;;;18.73;15.50;;;27.40;63.40;;;;;;5098564;28;20547;-72
2023/06/29 11:15:53;;;;;;;17.23;15.47;;;27.70;63.90;;;;;;5098604;28;20534;-73
2023/06/29 11:18:22;;;;;;;18.70;16.70;;;28.00;62.30;;;;;;5098742;28;20459;-72
2023/06/29 11:20:49;;;;;;;17.43;14.37;;;28.40;60.40;;;;;;5099085;28;20995;-73
2023/06/29 11:23:18;;;;;;;19.87;16.37;;;28.80;59.80;;;;;;5099974;28;20459;-72
2023/06/29 11:25:52;;;;;;;18.67;15.70;;;29.10;57.80;;;;;;5109980;28;20451;-73
2023/06/29 11:28:20;;;;;;;18.20;16.37;;;29.50;57.60;;;;;;5102124;28;20430;-73
2023/06/29 11:30:49;;;;;;;19.70;16.13;;;29.80;55.40;;;;;;5101439;28;20852;-73
2023/06/29 11:33:15;;;;;;;18.63;16.67;;;29.90;54.90;;;;;;5100321;28;20883;-75
2023/06/29 11:35:44;;;;;;;18.87;16.33;;;30.00;54.60;;;;;;5099524;28;20447;-73
2023/06/29 11:38:11;;;;;;;19.47;17.37;;;30.10;54.50;;;;;;5101673;28;20454;-73
2023/06/29 11:40:38;;;;;;;17.57;15.67;;;30.20;53.70;;;;;;5101616;28;20485;-73
2023/06/29 11:43:05;;;;;;;17.80;15.70;;;30.30;53.90;;;;;;5100270;28;20490;-72
2023/06/29 11:45:33;;;;;;;21.53;17.33;;;30.40;53.60;;;;;;5098211;28;20948;-73
2023/06/29 11:48:00;;;;;;;19.73;15.87;;;30.50;53.10;;;;;;5096816;28;20462;-73
2023/06/29 11:50:30;;;;;;;18.33;16.53;;;30.40;53.00;;;;;;5098050;28;20441;-72
2023/06/29 11:52:59;;;;;;;20.43;17.53;;;30.30;52.60;;;;;;5097761;28;20571;-73
2023/06/29 11:55:27;;;;;;;17.50;15.67;;;30.10;53.50;;;;;;5098871;28;20447;-73
2023/06/29 11:57:55;;;;;;;18.50;16.67;;;30.00;53.80;;;;;;5097624;28;20439;-73
2023/06/29 12:00:30;;;;;;;20.60;15.80;;;30.00;53.30;;;;;;5099381;28;20483;-72
2023/06/29 12:02:58;;;;;;;19.93;17.60;;;29.90;53.80;;;;;;5098665;28;20463;-72
2023/06/29 12:05:29;;;;;;;18.60;15.53;;;30.00;52.70;;;;;;5098496;28;20473;-73
2023/06/29 12:07:56;;;;;;;18.93;17.03;;;29.90;53.00;;;;;;5098675;28;20483;-73
2023/06/29 12:10:25;;;;;;;18.03;16.13;;;30.10;54.50;;;;;;5098535;28;20455;-72
2023/06/29 12:12:55;;;;;;;18.70;16.73;;;30.10;53.30;;;;;;5108977;28;20489;-72
2023/06/29 12:15:25;;;;;;;17.70;15.70;;;30.10;53.60;;;;;;5102512;28;20536;-73
2023/06/29 12:17:54;;;;;;;19.63;16.57;;;30.10;53.60;;;;;;5102247;28;20452;-72
2023/06/29 12:20:22;;;;;;;20.40;17.63;;;29.90;51.50;;;;;;5100761;28;20561;-73
2023/06/29 12:22:53;;;;;;;25.50;17.77;;;29.70;52.70;;;;;;5099645;28;20464;-72
2023/06/29 12:25:20;;;;;;;21.93;18.17;;;29.50;53.40;;;;;;5098294;28;20909;-73
2023/06/29 12:27:50;;;;;;;28.83;18.60;;;29.10;54.80;;;;;;5097959;28;20823;-73
2023/06/29 12:30:20;;;;;;;22.00;18.57;;;28.80;56.20;;;;;;5097658;28;20921;-73
2023/06/29 12:32:48;;;;;;;20.00;16.27;;;28.50;56.10;;;;;;5097871;28;20503;-72
2023/06/29 12:35:15;;;;;;;18.83;16.60;;;28.30;56.50;;;;;;5097903;28;20452;-73
2023/06/29 12:37:42;;;;;;;18.97;16.90;;;28.20;57.10;;;;;;5098339;28;20444;-73
2023/06/29 12:40:10;;;;;;;23.27;17.70;;;28.10;57.00;;;;;;5097309;28;20444;-72